sensor_id;sensor_type;location;lat;lon;timestamp;pressure;altitude;pressure_sealevel;temperature;humidity
68712;BME280;55690;51.566;19.198;2022-10-18T00:02:06;102670.02;;;13.56;100.00
68712;BME280;55690;51.566;19.198;2022-10-18T00:06:13;102671.86;;;13.40;100.00
68712;BME280;55690;51.566;19.198;2022-10-18T00:10:19;102660.48;;;13.32;100.00
68712;BME280;55690;51.566;19.198;2022-10-18T00:14:25;102664.52;;;13.25;100.00
68712;BME280;55690;51.566;19.198;2022-10-18T00:18:32;102665.73;;;13.19;100.00
68712;BME280;55690;51.566;19.198;2022-10-18T00:22:38;102664.09;;;13.15;100.00
68712;BME280;55690;51.566;19.198;2022-10-18T00:26:43;102662.48;;;13.11;100.00
68712;BME280;55690;51.566;19.198;2022-10-18T00:30:49;102670.12;;;13.05;100.00
68712;BME280;55690;51.566;19.198;2022-10-18T00:34:56;102666.15;;;12.94;100.00
68712;BME280;55690;51.566;19.198;2022-10-18T00:39:04;102661.33;;;12.82;100.00
68712;BME280;55690;51.566;19.198;2022-10-18T00:47:15;102658.77;;;12.79;100.00
68712;BME280;55690;51.566;19.198;2022-10-18T00:51:21;102656.36;;;12.73;100.00
68712;BME280;55690;51.566;19.198;2022-10-18T00:55:27;102660.52;;;12.63;100.00
68712;BME280;55690;51.566;19.198;2022-10-18T00:59:33;102654.51;;;12.56;100.00
68712;BME280;55690;51.566;19.198;2022-10-18T01:03:40;102653.66;;;12.56;100.00
68712;BME280;55690;51.566;19.198;2022-10-18T01:12:13;102640.50;;;12.47;100.00
68712;BME280;55690;51.566;19.198;2022-10-18T01:16:19;102646.42;;;12.38;100.00
68712;BME280;55690;51.566;19.198;2022-10-18T01:37:16;102619.96;;;12.22;100.00
68712;BME280;55690;51.566;19.198;2022-10-18T01:41:22;102615.16;;;12.27;100.00
68712;BME280;55690;51.566;19.198;2022-10-18T01:45:24;102604.03;;;12.32;100.00
68712;BME280;55690;51.566;19.198;2022-10-18T01:49:26;102604.76;;;12.36;100.00
68712;BME280;55690;51.566;19.198;2022-10-18T01:53:32;102601.95;;;12.37;100.00
68712;BME280;55690;51.566;19.198;2022-10-18T01:57:41;102600.27;;;12.35;100.00
68712;BME280;55690;51.566;19.198;2022-10-18T02:14:24;102601.41;;;12.48;100.00
68712;BME280;55690;51.566;19.198;2022-10-18T02:22:40;102596.11;;;12.45;100.00
68712;BME280;55690;51.566;19.198;2022-10-18T02:26:43;102587.06;;;12.44;100.00
68712;BME280;55690;51.566;19.198;2022-10-18T02:35:04;102598.76;;;12.46;100.00
68712;BME280;55690;51.566;19.198;2022-10-18T02:39:11;102594.98;;;12.49;100.00
68712;BME280;55690;51.566;19.198;2022-10-18T02:43:16;102587.85;;;12.46;100.00
68712;BME280;55690;51.566;19.198;2022-10-18T02:47:18;102589.70;;;12.46;100.00
68712;BME280;55690;51.566;19.198;2022-10-18T02:51:19;102604.60;;;12.39;100.00
68712;BME280;55690;51.566;19.198;2022-10-18T02:55:24;102606.82;;;12.30;100.00
68712;BME280;55690;51.566;19.198;2022-10-18T02:59:26;102608.61;;;12.31;100.00
68712;BME280;55690;51.566;19.198;2022-10-18T03:07:33;102599.13;;;12.21;100.00
68712;BME280;55690;51.566;19.198;2022-10-18T03:11:34;102606.03;;;12.11;100.00
68712;BME280;55690;51.566;19.198;2022-10-18T03:15:36;102613.13;;;12.14;100.00
68712;BME280;55690;51.566;19.198;2022-10-18T03:19:37;102606.34;;;12.05;100.00
68712;BME280;55690;51.566;19.198;2022-10-18T03:23:39;102615.47;;;12.04;100.00
68712;BME280;55690;51.566;19.198;2022-10-18T03:27:42;102607.60;;;11.98;100.00
68712;BME280;55690;51.566;19.198;2022-10-18T03:31:43;102604.80;;;11.99;100.00
68712;BME280;55690;51.566;19.198;2022-10-18T03:35:45;102605.84;;;11.97;100.00
68712;BME280;55690;51.566;19.198;2022-10-18T03:39:46;102602.16;;;11.98;100.00
68712;BME280;55690;51.566;19.198;2022-10-18T03:43:48;102618.64;;;11.95;100.00
68712;BME280;55690;51.566;19.198;2022-10-18T03:47:49;102609.59;;;11.94;100.00
68712;BME280;55690;51.566;19.198;2022-10-18T03:51:52;102613.05;;;11.98;100.00
68712;BME280;55690;51.566;19.198;2022-10-18T03:55:58;102608.72;;;11.94;100.00
68712;BME280;55690;51.566;19.198;2022-10-18T04:00:06;102608.13;;;11.87;100.00
68712;BME280;55690;51.566;19.198;2022-10-18T04:04:11;102598.85;;;11.91;100.00
68712;BME280;55690;51.566;19.198;2022-10-18T04:08:17;102611.59;;;11.91;100.00
68712;BME280;55690;51.566;19.198;2022-10-18T04:12:23;102607.84;;;11.93;100.00
68712;BME280;55690;51.566;19.198;2022-10-18T04:16:29;102606.88;;;11.94;100.00
68712;BME280;55690;51.566;19.198;2022-10-18T04:20:35;102601.80;;;11.87;100.00
68712;BME280;55690;51.566;19.198;2022-10-18T04:24:42;102599.79;;;11.72;100.00
68712;BME280;55690;51.566;19.198;2022-10-18T04:28:48;102604.21;;;11.74;100.00
68712;BME280;55690;51.566;19.198;2022-10-18T04:32:54;102609.59;;;11.76;100.00
68712;BME280;55690;51.566;19.198;2022-10-18T04:37:00;102609.46;;;11.79;100.00
68712;BME280;55690;51.566;19.198;2022-10-18T04:41:06;102602.30;;;11.76;100.00
68712;BME280;55690;51.566;19.198;2022-10-18T04:45:13;102600.50;;;11.77;100.00
68712;BME280;55690;51.566;19.198;2022-10-18T04:49:19;102594.62;;;11.67;100.00
68712;BME280;55690;51.566;19.198;2022-10-18T04:53:25;102608.22;;;11.67;100.00
68712;BME280;55690;51.566;19.198;2022-10-18T04:57:31;102596.39;;;11.49;100.00
68712;BME280;55690;51.566;19.198;2022-10-18T05:01:37;102598.80;;;11.55;100.00
68712;BME280;55690;51.566;19.198;2022-10-18T05:05:43;102591.60;;;11.54;100.00
68712;BME280;55690;51.566;19.198;2022-10-18T05:09:50;102591.45;;;11.57;100.00
68712;BME280;55690;51.566;19.198;2022-10-18T05:13:56;102586.23;;;11.53;100.00
68712;BME280;55690;51.566;19.198;2022-10-18T05:18:03;102589.83;;;11.53;100.00
68712;BME280;55690;51.566;19.198;2022-10-18T05:22:08;102590.13;;;11.47;100.00
68712;BME280;55690;51.566;19.198;2022-10-18T05:26:15;102596.16;;;11.54;100.00
68712;BME280;55690;51.566;19.198;2022-10-18T05:34:27;102604.32;;;11.54;100.00
68712;BME280;55690;51.566;19.198;2022-10-18T05:38:40;102588.07;;;11.52;100.00
68712;BME280;55690;51.566;19.198;2022-10-18T05:42:43;102599.48;;;11.60;100.00
68712;BME280;55690;51.566;19.198;2022-10-18T05:46:45;102603.81;;;11.64;100.00
68712;BME280;55690;51.566;19.198;2022-10-18T05:50:51;102597.00;;;11.73;100.00
68712;BME280;55690;51.566;19.198;2022-10-18T05:54:58;102601.38;;;11.77;100.00
68712;BME280;55690;51.566;19.198;2022-10-18T05:59:04;102600.34;;;11.80;100.00
68712;BME280;55690;51.566;19.198;2022-10-18T06:03:11;102603.26;;;11.94;100.00
68712;BME280;55690;51.566;19.198;2022-10-18T06:11:23;102608.91;;;12.08;100.00
68712;BME280;55690;51.566;19.198;2022-10-18T06:15:28;102607.95;;;12.09;100.00
68712;BME280;55690;51.566;19.198;2022-10-18T06:19:35;102602.89;;;12.19;100.00
68712;BME280;55690;51.566;19.198;2022-10-18T06:23:50;102606.04;;;12.46;100.00
68712;BME280;55690;51.566;19.198;2022-10-18T06:27:48;102602.73;;;12.56;100.00
68712;BME280;55690;51.566;19.198;2022-10-18T06:31:53;102608.09;;;12.75;100.00
68712;BME280;55690;51.566;19.198;2022-10-18T06:36:04;102609.20;;;12.88;100.00
68712;BME280;55690;51.566;19.198;2022-10-18T06:40:07;102616.98;;;12.96;100.00
68712;BME280;55690;51.566;19.198;2022-10-18T06:44:11;102621.20;;;13.19;100.00
68712;BME280;55690;51.566;19.198;2022-10-18T06:48:18;102613.46;;;13.27;100.00
68712;BME280;55690;51.566;19.198;2022-10-18T06:52:24;102606.62;;;13.36;100.00
68712;BME280;55690;51.566;19.198;2022-10-18T06:56:33;102614.02;;;13.49;100.00
68712;BME280;55690;51.566;19.198;2022-10-18T07:00:42;102604.16;;;13.62;100.00
68712;BME280;55690;51.566;19.198;2022-10-18T07:04:46;102605.41;;;13.73;100.00
68712;BME280;55690;51.566;19.198;2022-10-18T07:08:50;102603.30;;;13.78;100.00
68712;BME280;55690;51.566;19.198;2022-10-18T07:12:55;102610.34;;;13.82;99.76
68712;BME280;55690;51.566;19.198;2022-10-18T07:17:01;102607.13;;;14.05;99.98
68712;BME280;55690;51.566;19.198;2022-10-18T07:21:10;102599.34;;;14.29;99.05
68712;BME280;55690;51.566;19.198;2022-10-18T07:25:13;102604.95;;;14.42;98.36
68712;BME280;55690;51.566;19.198;2022-10-18T07:29:20;102605.70;;;14.74;98.13
68712;BME280;55690;51.566;19.198;2022-10-18T07:33:28;102609.67;;;15.12;97.64
68712;BME280;55690;51.566;19.198;2022-10-18T07:37:32;102600.95;;;15.20;96.24
68712;BME280;55690;51.566;19.198;2022-10-18T07:41:38;102590.20;;;15.31;95.31
68712;BME280;55690;51.566;19.198;2022-10-18T07:45:52;102600.76;;;15.23;95.52
68712;BME280;55690;51.566;19.198;2022-10-18T07:49:55;102598.29;;;15.61;95.01
68712;BME280;55690;51.566;19.198;2022-10-18T07:53:57;102601.41;;;15.69;94.21
68712;BME280;55690;51.566;19.198;2022-10-18T07:58:03;102597.05;;;15.93;92.54
68712;BME280;55690;51.566;19.198;2022-10-18T08:02:15;102584.72;;;16.13;93.24
68712;BME280;55690;51.566;19.198;2022-10-18T08:06:32;102579.32;;;15.99;93.07
68712;BME280;55690;51.566;19.198;2022-10-18T08:18:44;102574.17;;;16.07;95.47
68712;BME280;55690;51.566;19.198;2022-10-18T08:22:49;102571.64;;;16.04;92.58
68712;BME280;55690;51.566;19.198;2022-10-18T08:26:51;102565.89;;;16.21;93.58
68712;BME280;55690;51.566;19.198;2022-10-18T08:34:58;102560.45;;;16.47;92.71
68712;BME280;55690;51.566;19.198;2022-10-18T08:39:04;102561.09;;;16.77;92.97
68712;BME280;55690;51.566;19.198;2022-10-18T08:47:23;102563.58;;;17.18;90.88
68712;BME280;55690;51.566;19.198;2022-10-18T08:55:53;102550.05;;;17.28;90.75
68712;BME280;55690;51.566;19.198;2022-10-18T08:59:52;102552.97;;;17.38;89.94
68712;BME280;55690;51.566;19.198;2022-10-18T09:16:55;102538.87;;;17.68;90.88
68712;BME280;55690;51.566;19.198;2022-10-18T09:20:59;102528.17;;;17.76;90.17
68712;BME280;55690;51.566;19.198;2022-10-18T09:29:29;102543.52;;;17.78;89.61
68712;BME280;55690;51.566;19.198;2022-10-18T09:37:48;102526.47;;;17.86;91.10
68712;BME280;55690;51.566;19.198;2022-10-18T09:42:03;102506.46;;;17.84;90.82
68712;BME280;55690;51.566;19.198;2022-10-18T09:46:08;102505.23;;;17.88;90.99
68712;BME280;55690;51.566;19.198;2022-10-18T09:54:39;102493.01;;;17.92;91.73
68712;BME280;55690;51.566;19.198;2022-10-18T09:58:46;102495.34;;;18.09;91.56
68712;BME280;55690;51.566;19.198;2022-10-18T10:02:49;102491.36;;;18.13;91.25
68712;BME280;55690;51.566;19.198;2022-10-18T10:06:53;102485.39;;;18.19;91.67
68712;BME280;55690;51.566;19.198;2022-10-18T10:10:55;102475.09;;;18.10;92.29
68712;BME280;55690;51.566;19.198;2022-10-18T10:15:09;102460.24;;;18.24;92.75
68712;BME280;55690;51.566;19.198;2022-10-18T10:19:30;102450.35;;;18.10;92.29
68712;BME280;55690;51.566;19.198;2022-10-18T10:27:45;102451.11;;;18.23;93.42
68712;BME280;55690;51.566;19.198;2022-10-18T10:32:02;102449.88;;;18.16;92.93
68712;BME280;55690;51.566;19.198;2022-10-18T10:36:00;102440.22;;;18.11;93.74
68712;BME280;55690;51.566;19.198;2022-10-18T10:40:19;102433.62;;;18.13;93.82
68712;BME280;55690;51.566;19.198;2022-10-18T10:44:21;102429.75;;;18.16;94.22
68712;BME280;55690;51.566;19.198;2022-10-18T10:48:30;102431.38;;;18.18;94.41
68712;BME280;55690;51.566;19.198;2022-10-18T10:52:50;102425.76;;;18.31;94.33
68712;BME280;55690;51.566;19.198;2022-10-18T10:56:59;102416.50;;;18.32;92.94
68712;BME280;55690;51.566;19.198;2022-10-18T11:09:32;102331.74;;;18.26;93.67
68712;BME280;55690;51.566;19.198;2022-10-18T11:13:49;102377.14;;;18.87;93.54
68712;BME280;55690;51.566;19.198;2022-10-18T11:22:01;102369.48;;;19.02;93.39
68712;BME280;55690;51.566;19.198;2022-10-18T11:43:15;102325.63;;;19.74;92.37
68712;BME280;55690;51.566;19.198;2022-10-18T12:04:20;102291.09;;;20.01;91.71
68712;BME280;55690;51.566;19.198;2022-10-18T12:16:45;102281.91;;;20.21;90.65
68712;BME280;55690;51.566;19.198;2022-10-18T12:20:54;102275.91;;;20.46;90.76
68712;BME280;55690;51.566;19.198;2022-10-18T12:33:20;102251.33;;;20.34;90.72
68712;BME280;55690;51.566;19.198;2022-10-18T12:41:46;102239.84;;;20.29;91.63
68712;BME280;55690;51.566;19.198;2022-10-18T12:45:52;102221.83;;;20.24;91.86
68712;BME280;55690;51.566;19.198;2022-10-18T12:50:00;102222.98;;;20.22;91.43
68712;BME280;55690;51.566;19.198;2022-10-18T12:54:09;102217.49;;;20.32;92.18
68712;BME280;55690;51.566;19.198;2022-10-18T13:02:25;102202.05;;;20.19;92.11
68712;BME280;55690;51.566;19.198;2022-10-18T13:10:35;102188.20;;;20.00;92.41
68712;BME280;55690;51.566;19.198;2022-10-18T13:23:23;102191.80;;;19.91;93.51
68712;BME280;55690;51.566;19.198;2022-10-18T13:48:54;102153.81;;;19.64;94.69
68712;BME280;55690;51.566;19.198;2022-10-18T14:01:31;102146.70;;;19.62;95.51
68712;BME280;55690;51.566;19.198;2022-10-18T14:09:53;102136.25;;;19.35;96.99
68712;BME280;55690;51.566;19.198;2022-10-18T14:22:27;102123.34;;;19.14;97.71
68712;BME280;55690;51.566;19.198;2022-10-18T14:26:32;102112.20;;;19.16;98.53
68712;BME280;55690;51.566;19.198;2022-10-18T14:34:42;102131.88;;;19.11;100.00
68712;BME280;55690;51.566;19.198;2022-10-18T14:38:53;102114.45;;;19.01;100.00
68712;BME280;55690;51.566;19.198;2022-10-18T14:42:55;102111.15;;;18.86;100.00
68712;BME280;55690;51.566;19.198;2022-10-18T14:51:09;102124.02;;;18.65;100.00
68712;BME280;55690;51.566;19.198;2022-10-18T14:55:23;102116.76;;;18.64;100.00
68712;BME280;55690;51.566;19.198;2022-10-18T15:03:36;102122.83;;;18.47;100.00
68712;BME280;55690;51.566;19.198;2022-10-18T15:07:38;102133.48;;;18.40;100.00
68712;BME280;55690;51.566;19.198;2022-10-18T15:11:40;102131.24;;;18.34;100.00
68712;BME280;55690;51.566;19.198;2022-10-18T15:15:43;102136.39;;;18.27;100.00
68712;BME280;55690;51.566;19.198;2022-10-18T15:19:55;102142.69;;;18.18;100.00
68712;BME280;55690;51.566;19.198;2022-10-18T15:29:01;102125.82;;;18.12;100.00
68712;BME280;55690;51.566;19.198;2022-10-18T15:32:30;102134.47;;;17.96;100.00
68712;BME280;55690;51.566;19.198;2022-10-18T15:45:33;102154.95;;;17.58;100.00
68712;BME280;55690;51.566;19.198;2022-10-18T15:49:47;102164.54;;;17.42;100.00
68712;BME280;55690;51.566;19.198;2022-10-18T15:54:04;102199.93;;;17.11;100.00
68712;BME280;55690;51.566;19.198;2022-10-18T16:02:55;102226.10;;;16.56;100.00
68712;BME280;55690;51.566;19.198;2022-10-18T16:06:58;102240.88;;;16.43;100.00
68712;BME280;55690;51.566;19.198;2022-10-18T16:11:00;102236.55;;;16.15;100.00
68712;BME280;55690;51.566;19.198;2022-10-18T16:15:02;102248.77;;;15.85;100.00
68712;BME280;55690;51.566;19.198;2022-10-18T16:19:15;102267.07;;;15.72;100.00
68712;BME280;55690;51.566;19.198;2022-10-18T16:23:25;102282.10;;;15.27;100.00
68712;BME280;55690;51.566;19.198;2022-10-18T16:31:39;102272.14;;;14.86;100.00
68712;BME280;55690;51.566;19.198;2022-10-18T16:35:41;102280.96;;;14.77;100.00
68712;BME280;55690;51.566;19.198;2022-10-18T16:39:46;102286.88;;;14.71;100.00
68712;BME280;55690;51.566;19.198;2022-10-18T16:43:48;102304.77;;;14.62;100.00
68712;BME280;55690;51.566;19.198;2022-10-18T16:47:50;102306.22;;;14.68;100.00
68712;BME280;55690;51.566;19.198;2022-10-18T16:51:58;102318.13;;;14.39;100.00
68712;BME280;55690;51.566;19.198;2022-10-18T16:56:02;102340.20;;;14.36;100.00
68712;BME280;55690;51.566;19.198;2022-10-18T17:00:14;102343.05;;;14.20;100.00
68712;BME280;55690;51.566;19.198;2022-10-18T17:04:18;102355.55;;;14.24;100.00
68712;BME280;55690;51.566;19.198;2022-10-18T17:08:24;102360.23;;;14.22;100.00
68712;BME280;55690;51.566;19.198;2022-10-18T17:12:26;102367.05;;;14.15;100.00
68712;BME280;55690;51.566;19.198;2022-10-18T17:16:33;102355.06;;;14.17;100.00
68712;BME280;55690;51.566;19.198;2022-10-18T17:20:35;102346.56;;;14.08;100.00
68712;BME280;55690;51.566;19.198;2022-10-18T17:24:36;102332.13;;;14.20;100.00
68712;BME280;55690;51.566;19.198;2022-10-18T17:28:38;102311.73;;;14.25;100.00
68712;BME280;55690;51.566;19.198;2022-10-18T17:32:40;102317.88;;;14.29;100.00
68712;BME280;55690;51.566;19.198;2022-10-18T17:36:45;102325.69;;;14.21;100.00
68712;BME280;55690;51.566;19.198;2022-10-18T17:40:46;102336.88;;;14.30;100.00
68712;BME280;55690;51.566;19.198;2022-10-18T17:44:49;102345.20;;;14.15;100.00
68712;BME280;55690;51.566;19.198;2022-10-18T17:48:55;102348.13;;;14.26;100.00
68712;BME280;55690;51.566;19.198;2022-10-18T17:53:01;102347.16;;;14.27;100.00
68712;BME280;55690;51.566;19.198;2022-10-18T17:57:08;102350.76;;;14.13;100.00
68712;BME280;55690;51.566;19.198;2022-10-18T18:01:21;102356.41;;;14.10;100.00
68712;BME280;55690;51.566;19.198;2022-10-18T18:05:23;102364.61;;;14.10;100.00
68712;BME280;55690;51.566;19.198;2022-10-18T18:09:26;102354.86;;;14.20;100.00
68712;BME280;55690;51.566;19.198;2022-10-18T18:13:32;102359.64;;;14.17;100.00
68712;BME280;55690;51.566;19.198;2022-10-18T18:17:38;102363.92;;;14.07;100.00
68712;BME280;55690;51.566;19.198;2022-10-18T18:21:45;102369.26;;;13.94;100.00
68712;BME280;55690;51.566;19.198;2022-10-18T18:25:55;102370.33;;;13.91;100.00
68712;BME280;55690;51.566;19.198;2022-10-18T18:29:57;102378.24;;;13.96;100.00
68712;BME280;55690;51.566;19.198;2022-10-18T18:34:03;102384.98;;;14.05;100.00
68712;BME280;55690;51.566;19.198;2022-10-18T18:38:09;102378.46;;;14.07;100.00
68712;BME280;55690;51.566;19.198;2022-10-18T18:42:15;102380.51;;;14.04;100.00
68712;BME280;55690;51.566;19.198;2022-10-18T18:46:23;102387.23;;;13.98;100.00
68712;BME280;55690;51.566;19.198;2022-10-18T18:50:33;102378.93;;;13.99;100.00
68712;BME280;55690;51.566;19.198;2022-10-18T18:54:37;102395.01;;;13.90;100.00
68712;BME280;55690;51.566;19.198;2022-10-18T18:58:42;102402.50;;;13.86;100.00
68712;BME280;55690;51.566;19.198;2022-10-18T19:02:47;102395.98;;;13.89;100.00
68712;BME280;55690;51.566;19.198;2022-10-18T19:06:52;102410.23;;;13.94;100.00
68712;BME280;55690;51.566;19.198;2022-10-18T19:10:59;102410.41;;;13.91;100.00
68712;BME280;55690;51.566;19.198;2022-10-18T19:15:06;102409.95;;;13.98;100.00
68712;BME280;55690;51.566;19.198;2022-10-18T19:27:27;102425.65;;;13.95;100.00
68712;BME280;55690;51.566;19.198;2022-10-18T19:31:29;102423.98;;;13.92;100.00
68712;BME280;55690;51.566;19.198;2022-10-18T19:39:42;102404.08;;;13.90;100.00
68712;BME280;55690;51.566;19.198;2022-10-18T19:43:49;102402.04;;;13.94;100.00
68712;BME280;55690;51.566;19.198;2022-10-18T19:47:54;102403.10;;;13.91;100.00
68712;BME280;55690;51.566;19.198;2022-10-18T19:52:01;102404.39;;;13.86;100.00
68712;BME280;55690;51.566;19.198;2022-10-18T19:56:08;102406.34;;;13.84;100.00
68712;BME280;55690;51.566;19.198;2022-10-18T20:00:13;102405.73;;;13.79;100.00
68712;BME280;55690;51.566;19.198;2022-10-18T20:04:19;102403.98;;;13.78;100.00
68712;BME280;55690;51.566;19.198;2022-10-18T20:12:31;102406.01;;;13.74;100.00
68712;BME280;55690;51.566;19.198;2022-10-18T20:16:37;102414.48;;;13.70;100.00
68712;BME280;55690;51.566;19.198;2022-10-18T20:20:44;102419.34;;;13.64;100.00
68712;BME280;55690;51.566;19.198;2022-10-18T20:24:50;102412.20;;;13.62;100.00
68712;BME280;55690;51.566;19.198;2022-10-18T20:28:56;102411.70;;;13.55;100.00
68712;BME280;55690;51.566;19.198;2022-10-18T20:33:02;102405.53;;;13.52;100.00
68712;BME280;55690;51.566;19.198;2022-10-18T20:37:08;102400.83;;;13.40;100.00
68712;BME280;55690;51.566;19.198;2022-10-18T20:41:17;102393.45;;;13.26;100.00
68712;BME280;55690;51.566;19.198;2022-10-18T20:45:21;102399.70;;;13.28;100.00
68712;BME280;55690;51.566;19.198;2022-10-18T20:49:27;102403.30;;;13.28;100.00
68712;BME280;55690;51.566;19.198;2022-10-18T20:53:34;102404.37;;;13.26;100.00
68712;BME280;55690;51.566;19.198;2022-10-18T20:57:39;102415.20;;;13.27;100.00
68712;BME280;55690;51.566;19.198;2022-10-18T21:01:45;102426.72;;;13.33;100.00
68712;BME280;55690;51.566;19.198;2022-10-18T21:05:52;102415.45;;;13.23;100.00
68712;BME280;55690;51.566;19.198;2022-10-18T21:09:58;102411.06;;;13.20;100.00
68712;BME280;55690;51.566;19.198;2022-10-18T21:14:05;102426.20;;;13.26;100.00
68712;BME280;55690;51.566;19.198;2022-10-18T21:18:10;102422.50;;;13.27;100.00
68712;BME280;55690;51.566;19.198;2022-10-18T21:22:16;102421.44;;;13.29;100.00
68712;BME280;55690;51.566;19.198;2022-10-18T21:26:27;102413.26;;;13.29;100.00
68712;BME280;55690;51.566;19.198;2022-10-18T21:30:39;102418.45;;;13.34;100.00
68712;BME280;55690;51.566;19.198;2022-10-18T21:34:40;102409.28;;;13.35;100.00
68712;BME280;55690;51.566;19.198;2022-10-18T21:38:43;102417.88;;;13.43;100.00
68712;BME280;55690;51.566;19.198;2022-10-18T21:42:48;102413.60;;;13.39;100.00
68712;BME280;55690;51.566;19.198;2022-10-18T21:46:53;102410.48;;;13.45;100.00
68712;BME280;55690;51.566;19.198;2022-10-18T21:51:06;102419.63;;;13.44;100.00
68712;BME280;55690;51.566;19.198;2022-10-18T21:55:08;102413.20;;;13.45;100.00
68712;BME280;55690;51.566;19.198;2022-10-18T22:03:20;102411.88;;;13.52;100.00
68712;BME280;55690;51.566;19.198;2022-10-18T22:07:24;102402.50;;;13.42;100.00
68712;BME280;55690;51.566;19.198;2022-10-18T22:11:36;102405.12;;;13.44;100.00
68712;BME280;55690;51.566;19.198;2022-10-18T22:15:41;102397.41;;;13.36;100.00
68712;BME280;55690;51.566;19.198;2022-10-18T22:19:43;102396.43;;;13.37;100.00
68712;BME280;55690;51.566;19.198;2022-10-18T22:23:51;102400.13;;;13.36;100.00
68712;BME280;55690;51.566;19.198;2022-10-18T22:27:55;102396.01;;;13.29;100.00
68712;BME280;55690;51.566;19.198;2022-10-18T22:32:01;102385.09;;;13.29;100.00
68712;BME280;55690;51.566;19.198;2022-10-18T22:36:07;102380.35;;;13.17;100.00
68712;BME280;55690;51.566;19.198;2022-10-18T22:40:13;102379.79;;;13.10;100.00
68712;BME280;55690;51.566;19.198;2022-10-18T22:44:19;102386.42;;;12.90;100.00
68712;BME280;55690;51.566;19.198;2022-10-18T22:48:26;102387.48;;;12.88;100.00
68712;BME280;55690;51.566;19.198;2022-10-18T22:52:32;102389.77;;;12.95;100.00
68712;BME280;55690;51.566;19.198;2022-10-18T22:56:38;102389.06;;;12.92;100.00
68712;BME280;55690;51.566;19.198;2022-10-18T23:00:44;102380.80;;;12.78;100.00
68712;BME280;55690;51.566;19.198;2022-10-18T23:04:50;102373.49;;;12.78;100.00
68712;BME280;55690;51.566;19.198;2022-10-18T23:08:59;102383.78;;;12.73;100.00
68712;BME280;55690;51.566;19.198;2022-10-18T23:13:04;102373.39;;;12.64;100.00
68712;BME280;55690;51.566;19.198;2022-10-18T23:17:09;102368.38;;;12.56;100.00
68712;BME280;55690;51.566;19.198;2022-10-18T23:21:15;102383.25;;;12.51;100.00
68712;BME280;55690;51.566;19.198;2022-10-18T23:25:21;102374.45;;;12.46;100.00
68712;BME280;55690;51.566;19.198;2022-10-18T23:29:27;102378.48;;;12.39;100.00
68712;BME280;55690;51.566;19.198;2022-10-18T23:33:34;102384.17;;;12.34;100.00
68712;BME280;55690;51.566;19.198;2022-10-18T23:37:40;102381.23;;;12.21;100.00
68712;BME280;55690;51.566;19.198;2022-10-18T23:41:46;102384.21;;;12.17;100.00
68712;BME280;55690;51.566;19.198;2022-10-18T23:45:52;102387.80;;;12.02;100.00
68712;BME280;55690;51.566;19.198;2022-10-18T23:49:58;102388.95;;;12.13;100.00
68712;BME280;55690;51.566;19.198;2022-10-18T23:54:04;102397.03;;;12.15;100.00
68712;BME280;55690;51.566;19.198;2022-10-18T23:58:10;102384.83;;;12.06;100.00
